CYIOCYRT

Guest
Details From CYIO - POND INLET
To CYRT - RANKIN INLET
Flight Number -
Tags generated
Created
Modified
Stats Distance 1,089 nm / 2,017 km
Max Altitude 0 ft / 0 m
Waypoints 8
Social Downloads 0
Likes 0
Share VATSIM

Download

Looking for another format? Having issues loading an existing format? Contact us
Advertisement - Login to hide

Notes

None

Route

CYIO YIO RR30 YSR 5E82 RB AR22 RT CYRT

ID Type Via Altitude Latitude Longitude Leg Dist Tot Dist Heading (true) Name
O CYIO APT - 0 ft / 0 m 72.68333˚ -77.96666˚ - 0 nm - POND INLET
YIO NDB - 0 ft / 0 m 72.69311˚ -77.95097˚ 0 nm 0 nm 26° / 26° POND INLET NDB
YSR VOR RR30 (AWY-LO) 0 ft / 0 m 72.97472˚ -84.53306˚ 117 nm 118 nm 281° / 275° -
RB NDB 5E82 (AWY-LO) 0 ft / 0 m 74.74714˚ -94.99503˚ 204 nm 322 nm 306° / 296° RESOLUTE BAY NDB
YHK NDB AR22 (AWY-LO) 0 ft / 0 m 68.62611˚ -95.85833˚ 367 nm 690 nm 183° / 182° GJOA HAVEN NDB
BK NDB AR22 (AWY-LO) 0 ft / 0 m 64.31472˚ -96.06475˚ 258 nm 949 nm 181° / 181° BAKER LAKE NDB
RT NDB AR22 (AWY-LO) 0 ft / 0 m 62.82528˚ -92.10944˚ 138 nm 1087 nm 128° / 132° RANKIN INLET NDB
O CYRT APT - 0 ft / 0 m 62.81139˚ -92.11584˚ 0 nm 1088 nm 192° / 192° RANKIN INLET

Altitude Profile

Advertisement - Login to hide

Weather


0- 5 10 15 20 25 30 35+ Temperature / ° C

Clouds and Precipitation
Forecast for 2017-12-12 18:00 UTC. Updated an hour ago

Ground ~20,000 ft ~40,000 ft Winds

CYIO

Details ICAO CYIO (YIO)
Name POND INLET
Region Canada
Timezone America/Iqaluit (UTC-5.0)
Stats Elevation 181 ft / 55 m (AMSL)
Location 72.683334° -77.966664°
Runways 1
Magnetic Variation 36.783° W

METAR

CYIO 121402Z AUTO 19004KT 9SM -SN SCT016 OVC060 M20/M22 A2934 RMK SLP945

Decode

TAF

TAF CYIO 121238Z 1213/1301 VRB03KT P6SM -SN BKN015 OVC060 TEMPO 1213/1301 P6SM NSW SCT015 OVC060 RMK FCST BASED ON AUTO OBS. NXT FCST BY 121900Z

Decode

Departure Runways

ID Width Length Bearing (true) Bearing (mag) Surface Threshold Offset Overrun Length
02T 100 ft / 30 m 3,986 ft / 1,215 m 22.99° 59.77° Gravel 0 ft / 0 m 0 ft / 0 m
20T 100 ft / 30 m 3,986 ft / 1,215 m 203.00° 239.78° Gravel 0 ft / 0 m 0 ft / 0 m

CYRT

Details ICAO CYRT (YRT)
Name RANKIN INLET
Region Canada
Timezone America/Rankin_Inlet (UTC-6.0)
Stats Elevation 94 ft / 29 m (AMSL)
Location 62.811388° -92.115836°
Runways 1
Magnetic Variation 6.848° W

METAR

CYRT 121400Z 32008KT 10SM IC SCT009 BKN270 M30/M33 A2986 RMK SF4CI2 SLP118

Decode

TAF

TAF CYRT 121138Z 1212/1224 33015KT P6SM IC SCT008 TEMPO 1212/1215 5SM IC BKN008 FM121500 32012KT P6SM IC SCT008 RMK NXT FCST BY 121800Z

Decode

Destination Runways

ID Width Length Bearing (true) Bearing (mag) Surface Threshold Offset Overrun Length
13T 150 ft / 46 m 5,982 ft / 1,823 m 129.03° 135.88° Asphalt 0 ft / 0 m 0 ft / 0 m
31T 150 ft / 46 m 5,982 ft / 1,823 m 309.05° 315.90° Asphalt 0 ft / 0 m 0 ft / 0 m